createdAt,value
2023-02-08T00:01:34.763Z,63.48
2023-02-08T00:04:07.727Z,63.41
2023-02-08T00:06:40.624Z,63.50
2023-02-08T00:09:14.059Z,63.42
2023-02-08T00:11:48.310Z,63.69
2023-02-08T00:14:21.331Z,63.35
2023-02-08T00:16:54.180Z,63.52
2023-02-08T00:19:27.152Z,63.80
2023-02-08T00:22:00.027Z,63.51
2023-02-08T00:24:34.049Z,63.59
2023-02-08T00:27:08.445Z,63.32
2023-02-08T00:29:41.388Z,63.65
2023-02-08T00:32:14.319Z,63.37
2023-02-08T00:34:47.295Z,63.80
2023-02-08T00:37:20.128Z,63.34
2023-02-08T00:39:53.012Z,63.53
2023-02-08T00:42:27.636Z,63.21
2023-02-08T00:45:00.550Z,62.85
2023-02-08T00:47:33.393Z,63.10
2023-02-08T00:50:07.148Z,63.29
2023-02-08T00:52:40.330Z,62.81
2023-02-08T00:55:13.214Z,62.95
2023-02-08T00:57:47.466Z,62.80
2023-02-08T01:00:21.034Z,63.06
2023-02-08T01:02:53.868Z,63.11
2023-02-08T01:05:26.848Z,63.06
2023-02-08T01:07:59.735Z,62.96
2023-02-08T01:10:34.317Z,62.83
2023-02-08T01:13:08.972Z,63.04
2023-02-08T01:15:41.888Z,63.34
2023-02-08T01:18:14.762Z,63.26
2023-02-08T01:20:47.746Z,63.71
2023-02-08T01:23:20.623Z,63.66
2023-02-08T01:25:53.598Z,64.15
2023-02-08T01:28:27.936Z,64.26
2023-02-08T01:31:01.059Z,64.58
2023-02-08T01:33:33.919Z,64.44
2023-02-08T01:36:08.325Z,64.72
2023-02-08T01:38:41.264Z,64.95
2023-02-08T01:41:19.418Z,64.31
2023-02-08T01:44:31.320Z,64.42
2023-02-08T01:47:05.723Z,64.77
2023-02-08T01:49:39.238Z,64.93
2023-02-08T01:52:16.180Z,64.54
2023-02-08T01:54:52.620Z,64.41
2023-02-08T01:57:26.755Z,63.94
2023-02-08T02:00:04.365Z,64.12
2023-02-08T02:02:40.678Z,63.44
2023-02-08T02:05:14.795Z,63.50
2023-02-08T02:07:48.459Z,63.50
2023-02-08T02:10:26.540Z,63.34
2023-02-08T02:13:09.063Z,62.83
2023-02-08T02:15:43.590Z,63.11
2023-02-08T02:18:24.695Z,62.71
2023-02-08T02:21:14.781Z,62.55
2023-02-08T02:24:16.375Z,61.80
2023-02-08T02:27:15.413Z,61.64
2023-02-08T02:30:10.535Z,61.86
2023-02-08T02:33:01.199Z,61.58
2023-02-08T02:35:45.501Z,61.86
2023-02-08T02:38:30.248Z,61.53
2023-02-08T02:41:10.905Z,61.45
2023-02-08T02:43:47.123Z,61.46
2023-02-08T02:46:26.919Z,61.06
2023-02-08T02:49:07.802Z,61.35
2023-02-08T02:51:46.048Z,61.21
2023-02-08T02:54:24.764Z,60.76
2023-02-08T02:57:03.484Z,60.76
2023-02-08T02:59:39.621Z,60.78
2023-02-08T03:02:13.075Z,61.01
2023-02-08T03:04:53.315Z,60.93
2023-02-08T03:07:50.535Z,60.39
2023-02-08T03:10:37.013Z,60.18
2023-02-08T03:13:24.503Z,60.59
2023-02-08T03:16:08.329Z,59.95
2023-02-08T03:18:53.178Z,59.96
2023-02-08T03:21:38.372Z,59.81
2023-02-08T03:24:23.440Z,59.85
2023-02-08T03:27:02.750Z,59.83
2023-02-08T03:29:48.871Z,59.89
2023-02-08T03:32:27.926Z,59.54
2023-02-08T03:35:06.955Z,59.81
2023-02-08T03:37:45.253Z,59.40
2023-02-08T03:40:23.774Z,59.61
2023-02-08T03:43:01.490Z,59.74
2023-02-08T03:45:39.810Z,59.74
2023-02-08T03:48:15.098Z,59.61
2023-02-08T03:50:52.305Z,59.67
2023-02-08T03:53:27.965Z,59.87
2023-02-08T03:56:05.234Z,59.48
2023-02-08T03:58:45.930Z,59.83
2023-02-08T04:01:23.547Z,59.93
2023-02-08T04:03:58.626Z,60.04
2023-02-08T04:06:32.056Z,59.58
2023-02-08T04:09:06.593Z,59.66
2023-02-08T04:11:39.565Z,59.89
2023-02-08T04:14:12.408Z,60.16
2023-02-08T04:16:45.313Z,59.44
2023-02-08T04:19:18.244Z,59.82
2023-02-08T04:21:51.161Z,59.71
2023-02-08T04:24:25.754Z,59.71
2023-02-08T04:26:58.723Z,59.90
2023-02-08T04:29:31.618Z,59.81
2023-02-08T04:32:05.357Z,59.68
2023-02-08T04:34:38.339Z,59.66
2023-02-08T04:37:12.192Z,59.55
2023-02-08T04:39:46.467Z,59.71
2023-02-08T04:42:19.432Z,59.40
2023-02-08T04:44:52.269Z,59.77
2023-02-08T04:47:25.211Z,59.88
2023-02-08T04:49:58.057Z,59.38
2023-02-08T04:52:31.164Z,59.31
2023-02-08T04:55:05.818Z,59.13
2023-02-08T04:57:38.813Z,59.62
2023-02-08T05:00:13.079Z,59.43
2023-02-08T05:02:46.313Z,59.56
2023-02-08T05:05:19.242Z,59.59
2023-02-08T05:07:52.301Z,59.37
2023-02-08T05:10:26.662Z,59.44
2023-02-08T05:12:59.561Z,59.11
2023-02-08T05:15:32.448Z,59.31
2023-02-08T05:18:05.543Z,58.89
2023-02-08T05:20:38.558Z,59.04
2023-02-08T05:23:11.884Z,58.89
2023-02-08T05:25:46.193Z,59.27
2023-02-08T05:28:19.496Z,58.85
2023-02-08T05:30:52.891Z,58.79
2023-02-08T05:33:26.116Z,58.59
2023-02-08T05:35:59.005Z,58.66
2023-02-08T05:38:31.915Z,59.18
2023-02-08T05:41:06.509Z,59.15
2023-02-08T05:43:39.405Z,59.21
2023-02-08T05:46:12.266Z,59.29
2023-02-08T05:48:45.326Z,59.15
2023-02-08T05:51:18.199Z,59.29
2023-02-08T05:53:51.297Z,59.00
2023-02-08T05:56:25.533Z,59.28
2023-02-08T05:59:00.912Z,59.04
2023-02-08T06:01:33.764Z,59.28
2023-02-08T06:04:06.891Z,58.94
2023-02-08T06:06:39.733Z,59.34
2023-02-08T06:09:12.706Z,59.23
2023-02-08T06:11:47.125Z,59.01
2023-02-08T06:14:20.152Z,59.22
2023-02-08T06:16:53.031Z,58.98
2023-02-08T06:19:26.272Z,59.29
2023-02-08T06:21:59.476Z,58.88
2023-02-08T06:24:32.615Z,58.67
2023-02-08T06:27:07.009Z,58.60
2023-02-08T06:29:39.957Z,58.07
2023-02-08T06:32:12.915Z,58.38
2023-02-08T06:34:45.908Z,58.13
2023-02-08T06:37:19.010Z,57.87
2023-02-08T06:39:51.924Z,57.79
2023-02-08T06:42:27.125Z,58.26
2023-02-08T06:45:00.100Z,58.36
2023-02-08T06:47:32.990Z,58.07
2023-02-08T06:50:06.810Z,58.40
2023-02-08T06:52:39.738Z,57.92
2023-02-08T06:55:13.031Z,58.05
2023-02-08T06:57:47.357Z,58.35
2023-02-08T07:00:20.539Z,58.31
2023-02-08T07:02:53.608Z,57.92
2023-02-08T07:05:26.472Z,58.21
2023-02-08T07:07:59.309Z,58.14
2023-02-08T07:10:32.298Z,58.08
2023-02-08T07:13:06.613Z,58.55
2023-02-08T07:15:39.516Z,58.08
2023-02-08T07:18:12.417Z,58.32
2023-02-08T07:20:45.784Z,58.24
2023-02-08T07:23:18.624Z,58.36
2023-02-08T07:25:58.867Z,58.30
2023-02-08T07:28:33.524Z,58.38
2023-02-08T07:31:07.673Z,58.23
2023-02-08T07:33:41.200Z,57.85
2023-02-08T07:36:14.183Z,58.25
2023-02-08T07:38:47.068Z,57.88
2023-02-08T07:41:19.966Z,57.98
2023-02-08T07:43:54.159Z,57.97
2023-02-08T07:46:27.118Z,58.01
2023-02-08T07:49:00.010Z,58.00
2023-02-08T07:51:33.188Z,57.97
2023-02-08T07:54:06.142Z,57.57
2023-02-08T07:56:39.122Z,57.47
2023-02-08T07:59:14.375Z,57.21
2023-02-08T08:01:47.321Z,57.82
2023-02-08T08:04:22.065Z,57.33
2023-02-08T08:06:55.102Z,57.18
2023-02-08T08:09:28.148Z,56.74
2023-02-08T08:12:01.045Z,56.86
2023-02-08T08:14:35.286Z,57.02
2023-02-08T08:17:08.819Z,56.90
2023-02-08T08:19:41.771Z,56.97
2023-02-08T08:22:14.682Z,56.77
2023-02-08T08:24:47.600Z,56.90
2023-02-08T08:27:20.480Z,57.02
2023-02-08T08:29:54.813Z,57.62
2023-02-08T08:32:27.782Z,57.14
2023-02-08T08:35:00.619Z,57.38
2023-02-08T08:37:33.777Z,57.32
2023-02-08T08:40:08.444Z,57.45
2023-02-08T08:42:41.386Z,57.44
2023-02-08T08:45:16.118Z,57.17
2023-02-08T08:47:49.064Z,57.25
2023-02-08T08:50:21.949Z,56.85
2023-02-08T08:52:55.184Z,57.04
2023-02-08T08:55:28.427Z,57.17
2023-02-08T08:58:01.330Z,57.22
2023-02-08T09:00:35.607Z,57.11
2023-02-08T09:03:08.844Z,57.29
2023-02-08T09:05:41.716Z,57.00
2023-02-08T09:08:14.705Z,56.82
2023-02-08T09:10:47.684Z,57.04
2023-02-08T09:13:21.883Z,57.46
2023-02-08T09:15:56.154Z,57.02
2023-02-08T09:18:29.066Z,56.91
2023-02-08T09:21:07.182Z,56.53
2023-02-08T09:23:40.505Z,56.86
2023-02-08T09:26:14.978Z,56.83
2023-02-08T09:28:48.594Z,56.97
2023-02-08T09:31:25.203Z,56.44
2023-02-08T09:34:00.140Z,56.27
2023-02-08T09:36:35.265Z,56.92
2023-02-08T09:39:15.843Z,56.76
2023-02-08T09:42:26.302Z,56.89
2023-02-08T09:45:13.583Z,57.30
2023-02-08T09:47:56.276Z,57.35
2023-02-08T09:50:34.740Z,57.57
2023-02-08T09:55:50.925Z,57.89
2023-02-08T09:58:28.263Z,57.69
2023-02-08T10:01:04.115Z,57.88
2023-02-08T10:03:42.570Z,57.46
2023-02-08T10:06:17.523Z,57.21
2023-02-08T10:11:43.513Z,56.34
2023-02-08T10:14:30.207Z,56.28
2023-02-08T10:17:16.213Z,55.97
2023-02-08T10:20:03.861Z,56.07
2023-02-08T10:22:50.913Z,55.94
2023-02-08T10:25:38.520Z,55.90
2023-02-08T10:28:31.654Z,56.70
2023-02-08T10:31:14.819Z,56.33
2023-02-08T10:33:56.177Z,55.77
2023-02-08T10:36:36.382Z,55.53
2023-02-08T10:39:17.375Z,55.60
2023-02-08T10:41:51.812Z,55.57
2023-02-08T10:44:35.335Z,55.17
2023-02-08T10:47:15.749Z,54.90
2023-02-08T10:49:55.202Z,55.26
2023-02-08T10:52:29.653Z,55.35
2023-02-08T10:55:02.926Z,55.18
2023-02-08T10:57:36.970Z,55.06
2023-02-08T11:00:14.595Z,54.59
2023-02-08T11:02:49.642Z,54.66
2023-02-08T11:05:34.018Z,54.77
2023-02-08T11:08:11.094Z,55.11
2023-02-08T11:10:47.653Z,54.40
2023-02-08T11:13:22.323Z,53.74
2023-02-08T11:15:59.005Z,53.98
2023-02-08T11:18:35.490Z,54.14
2023-02-08T11:21:12.085Z,54.03
2023-02-08T11:23:52.519Z,53.20
2023-02-08T11:26:33.899Z,53.86
2023-02-08T11:29:15.093Z,53.45
2023-02-08T11:32:00.287Z,53.44
2023-02-08T11:34:34.973Z,53.69
2023-02-08T11:37:16.908Z,53.46
2023-02-08T11:39:55.307Z,53.25
2023-02-08T11:42:31.288Z,53.11
2023-02-08T11:45:05.933Z,53.04
2023-02-08T11:47:39.095Z,53.27
2023-02-08T11:50:25.495Z,53.28
2023-02-08T11:53:00.730Z,53.08
2023-02-08T11:55:35.997Z,53.46
2023-02-08T11:58:20.932Z,53.46
2023-02-08T12:01:00.066Z,53.75
2023-02-08T12:03:37.023Z,54.27
2023-02-08T12:06:34.336Z,53.82
2023-02-08T12:09:14.721Z,53.78
2023-02-08T12:11:51.381Z,53.91
2023-02-08T12:14:42.349Z,53.87
2023-02-08T12:17:47.446Z,53.81
2023-02-08T12:20:36.995Z,53.76
2023-02-08T12:23:41.049Z,53.69
2023-02-08T12:26:40.834Z,54.38
2023-02-08T12:29:29.233Z,54.34
2023-02-08T12:32:36.768Z,54.47
2023-02-08T12:36:01.473Z,54.56
2023-02-08T12:39:25.723Z,54.98
2023-02-08T12:42:13.471Z,55.08
2023-02-08T12:45:10.595Z,55.06
2023-02-08T12:48:04.032Z,55.30
2023-02-08T12:50:46.906Z,55.26
2023-02-08T12:53:25.877Z,55.64
2023-02-08T12:56:01.684Z,55.54
2023-02-08T12:58:39.953Z,55.53
2023-02-08T13:01:19.291Z,55.56
2023-02-08T13:04:00.876Z,55.49
2023-02-08T13:06:40.524Z,55.45
2023-02-08T13:09:21.696Z,55.77
2023-02-08T13:11:59.205Z,55.80
2023-02-08T13:14:35.677Z,55.90
2023-02-08T13:17:18.088Z,54.98
2023-02-08T13:20:00.918Z,55.39
2023-02-08T13:22:38.556Z,55.49
2023-02-08T13:25:17.902Z,55.53
2023-02-08T13:27:52.376Z,55.64
2023-02-08T13:30:25.384Z,55.46
2023-02-08T13:33:05.944Z,55.22
2023-02-08T13:35:41.256Z,55.16
2023-02-08T13:38:22.893Z,55.58
2023-02-08T13:41:08.306Z,55.52
2023-02-08T13:43:44.871Z,55.86
2023-02-08T13:46:19.079Z,55.68
2023-02-08T13:48:56.675Z,55.40
2023-02-08T13:52:03.528Z,55.49
2023-02-08T13:54:36.506Z,56.37
2023-02-08T13:57:42.508Z,55.68
2023-02-08T14:00:24.241Z,55.65
2023-02-08T14:03:01.993Z,55.67
2023-02-08T14:05:48.238Z,55.36
2023-02-08T14:08:28.719Z,55.93
2023-02-08T14:11:11.502Z,55.84
2023-02-08T14:13:51.876Z,55.58
2023-02-08T14:16:33.010Z,55.60
2023-02-08T14:19:21.804Z,56.00
2023-02-08T14:22:04.889Z,55.60
2023-02-08T14:24:43.715Z,55.73
2023-02-08T14:27:23.910Z,55.52
2023-02-08T14:30:00.382Z,55.49
2023-02-08T14:32:35.407Z,55.41
2023-02-08T14:35:21.002Z,55.25
2023-02-08T14:38:37.378Z,55.25
2023-02-08T14:41:10.423Z,55.70
2023-02-08T14:43:43.331Z,55.58
2023-02-08T14:46:45.359Z,55.49
2023-02-08T14:49:20.220Z,56.21
2023-02-08T14:51:59.149Z,55.55
2023-02-08T14:54:45.706Z,55.52
2023-02-08T14:57:25.351Z,55.63
2023-02-08T15:00:01.745Z,55.14
2023-02-08T15:02:40.072Z,55.26
2023-02-08T15:05:22.480Z,54.82
2023-02-08T15:07:58.504Z,55.09
2023-02-08T15:10:35.162Z,54.98
2023-02-08T15:13:20.521Z,54.86
2023-02-08T15:15:56.226Z,55.30
2023-02-08T15:18:32.531Z,55.37
2023-02-08T15:21:09.550Z,55.58
2023-02-08T15:23:42.573Z,55.08
2023-02-08T15:26:24.475Z,55.01
2023-02-08T15:28:59.715Z,55.45
2023-02-08T15:31:34.893Z,55.14
2023-02-08T15:34:07.871Z,55.27
2023-02-08T15:36:40.976Z,55.22
2023-02-08T15:39:25.295Z,55.15
2023-02-08T15:42:00.144Z,55.39
2023-02-08T15:44:35.165Z,55.22
2023-02-08T15:47:15.233Z,55.36
2023-02-08T15:49:53.618Z,55.39
2023-02-08T15:52:29.782Z,55.39
2023-02-08T15:55:03.247Z,55.38
2023-02-08T15:57:44.130Z,55.43
2023-02-08T16:00:19.514Z,55.30
2023-02-08T16:02:55.609Z,55.43
2023-02-08T16:05:30.622Z,55.61
2023-02-08T16:08:04.790Z,55.68
2023-02-08T16:10:44.388Z,55.72
2023-02-08T16:13:23.728Z,55.73
2023-02-08T16:16:08.577Z,55.84
2023-02-08T16:18:45.941Z,56.10
2023-02-08T16:21:29.058Z,56.05
2023-02-08T16:24:07.055Z,55.81
2023-02-08T16:26:44.134Z,56.15
2023-02-08T16:29:21.036Z,56.04
2023-02-08T16:32:03.457Z,56.25
2023-02-08T16:34:38.516Z,56.03
2023-02-08T16:37:24.323Z,56.14
2023-02-08T16:39:59.316Z,56.40
2023-02-08T16:42:35.911Z,56.66
2023-02-08T16:45:28.086Z,56.38
2023-02-08T16:48:13.518Z,56.82
2023-02-08T16:50:51.363Z,56.76
2023-02-08T16:53:36.636Z,56.73
2023-02-08T16:56:14.717Z,56.67
2023-02-08T16:58:47.579Z,56.86
2023-02-08T17:01:24.229Z,56.80
2023-02-08T17:03:57.252Z,57.24
2023-02-08T17:06:32.973Z,57.01
2023-02-08T17:09:08.249Z,57.26
2023-02-08T17:11:41.636Z,57.41
2023-02-08T17:14:14.598Z,58.00
2023-02-08T17:16:48.962Z,57.56
2023-02-08T17:19:22.543Z,58.20
2023-02-08T17:21:55.449Z,58.18
2023-02-08T17:24:28.793Z,58.16
2023-02-08T17:27:01.795Z,58.45
2023-02-08T17:29:34.694Z,58.47
2023-02-08T17:32:09.065Z,58.73
2023-02-08T17:34:41.938Z,58.42
2023-02-08T17:37:14.782Z,58.58
2023-02-08T17:39:47.737Z,58.56
2023-02-08T17:42:20.624Z,58.91
2023-02-08T17:44:53.766Z,58.86
2023-02-08T17:47:27.974Z,58.92
2023-02-08T17:50:00.931Z,59.06
2023-02-08T17:52:33.824Z,58.78
2023-02-08T17:55:08.471Z,58.75
2023-02-08T17:57:43.344Z,59.09
2023-02-08T18:00:18.775Z,59.30
2023-02-08T18:02:55.003Z,59.10
2023-02-08T18:05:28.936Z,58.96
2023-02-08T18:08:01.810Z,59.40
2023-02-08T18:10:34.721Z,59.14
2023-02-08T18:13:07.585Z,59.39
2023-02-08T18:15:40.582Z,59.43
2023-02-08T18:18:15.749Z,59.59
2023-02-08T18:20:48.663Z,59.31
2023-02-08T18:23:21.554Z,59.57
2023-02-08T18:25:54.495Z,59.55
2023-02-08T18:28:27.431Z,59.78
2023-02-08T18:31:04.700Z,59.91
2023-02-08T18:36:39.684Z,59.99
2023-02-08T18:39:14.300Z,59.86
2023-02-08T18:41:47.189Z,60.02
2023-02-08T18:44:21.147Z,60.25
2023-02-08T18:46:54.426Z,60.08
2023-02-08T18:49:27.420Z,60.40
2023-02-08T18:52:01.739Z,59.96
2023-02-08T18:54:34.619Z,60.44
2023-02-08T18:57:09.710Z,60.36
2023-02-08T18:59:43.690Z,60.26
2023-02-08T19:02:21.171Z,60.66
2023-02-08T19:04:54.269Z,60.49
2023-02-08T19:07:28.740Z,60.65
2023-02-08T19:10:01.733Z,60.33
2023-02-08T19:12:36.666Z,60.36
2023-02-08T19:15:10.403Z,60.55
2023-02-08T19:17:44.337Z,60.57
2023-02-08T19:20:17.383Z,60.75
2023-02-08T19:22:51.661Z,60.57
2023-02-08T19:25:24.536Z,60.87
2023-02-08T19:27:57.515Z,60.95
2023-02-08T19:30:30.399Z,61.02
2023-02-08T19:33:03.484Z,60.94
2023-02-08T19:35:38.777Z,60.57
2023-02-08T19:38:13.135Z,60.87
2023-02-08T19:40:46.084Z,61.18
2023-02-08T19:43:19.011Z,61.02
2023-02-08T19:45:52.013Z,61.13
2023-02-08T19:48:25.779Z,61.09
2023-02-08T19:51:00.701Z,61.24
2023-02-08T19:53:35.112Z,61.47
2023-02-08T19:56:10.605Z,61.33
2023-02-08T19:58:44.269Z,61.49
2023-02-08T20:01:19.300Z,61.69
2023-02-08T20:03:55.044Z,61.53
2023-02-08T20:06:30.153Z,61.49
2023-02-08T20:09:05.417Z,61.73
2023-02-08T20:11:55.789Z,61.77
2023-02-08T20:14:32.986Z,61.72
2023-02-08T20:17:06.015Z,61.54
2023-02-08T20:19:39.565Z,61.56
2023-02-08T20:22:15.659Z,61.72
2023-02-08T20:24:49.953Z,61.87
2023-02-08T20:27:22.845Z,61.62
2023-02-08T20:29:57.238Z,61.84
2023-02-08T20:32:30.144Z,61.88
2023-02-08T20:35:03.113Z,61.64
2023-02-08T20:37:36.147Z,61.78
2023-02-08T20:40:13.456Z,62.13
2023-02-08T20:42:46.346Z,61.81
2023-02-08T20:45:19.623Z,61.92
2023-02-08T20:47:52.531Z,62.09
2023-02-08T20:50:26.998Z,62.11
2023-02-08T20:53:00.840Z,61.72
2023-02-08T20:55:35.239Z,62.06
2023-02-08T20:58:08.260Z,62.25
2023-02-08T21:00:43.500Z,62.06
2023-02-08T21:03:17.350Z,62.23
2023-02-08T21:05:50.327Z,61.93
2023-02-08T21:08:23.252Z,62.26
2023-02-08T21:10:57.661Z,62.42
2023-02-08T21:13:30.867Z,62.11
2023-02-08T21:16:06.032Z,62.01
2023-02-08T21:18:39.280Z,62.31
2023-02-08T21:21:12.233Z,62.05
2023-02-08T21:23:45.745Z,61.92
2023-02-08T21:26:22.045Z,62.28
2023-02-08T21:28:56.074Z,62.22
2023-02-08T21:31:29.101Z,62.05
2023-02-08T21:34:02.638Z,62.14
2023-02-08T21:36:36.279Z,61.82
2023-02-08T21:39:09.243Z,62.10
2023-02-08T21:41:43.624Z,62.04
2023-02-08T21:44:16.543Z,61.91
2023-02-08T21:46:49.603Z,62.10
2023-02-08T21:49:51.877Z,62.38
2023-02-08T21:52:42.137Z,62.02
2023-02-08T21:55:15.069Z,62.20
2023-02-08T21:57:49.380Z,62.05
2023-02-08T22:00:22.326Z,62.04
2023-02-08T22:02:55.320Z,62.24
2023-02-08T22:05:28.254Z,62.26
2023-02-08T22:08:01.655Z,62.31
2023-02-08T22:10:34.631Z,62.23
2023-02-08T22:13:09.055Z,62.12
2023-02-08T22:15:42.095Z,62.16
2023-02-08T22:18:16.839Z,62.36
2023-02-08T22:20:52.407Z,62.25
2023-02-08T22:23:25.329Z,62.22
2023-02-08T22:25:58.234Z,62.27
2023-02-08T22:28:32.588Z,62.30
2023-02-08T22:31:06.162Z,62.27
2023-02-08T22:33:39.226Z,62.24
2023-02-08T22:36:13.568Z,62.36
2023-02-08T22:38:46.503Z,62.33
2023-02-08T22:41:19.928Z,62.08
2023-02-08T22:43:55.118Z,62.38
2023-02-08T22:46:28.029Z,62.34
2023-02-08T22:49:00.949Z,62.18
2023-02-08T22:51:33.808Z,62.37
2023-02-08T22:54:07.259Z,62.35
2023-02-08T22:56:40.207Z,62.45
2023-02-08T22:59:14.565Z,62.31
2023-02-08T23:01:47.643Z,62.53
2023-02-08T23:04:21.426Z,62.55
2023-02-08T23:06:54.871Z,62.53
2023-02-08T23:09:27.821Z,62.33
2023-02-08T23:12:00.736Z,62.54
2023-02-08T23:14:35.851Z,62.29
2023-02-08T23:17:09.168Z,62.37
2023-02-08T23:19:42.529Z,62.03
2023-02-08T23:22:15.392Z,62.16
2023-02-08T23:24:48.256Z,62.36
2023-02-08T23:27:21.170Z,61.87
2023-02-08T23:29:55.857Z,62.21
2023-02-08T23:32:28.730Z,62.09
2023-02-08T23:35:01.722Z,62.19
2023-02-08T23:37:34.596Z,62.27
2023-02-08T23:40:08.639Z,62.05
2023-02-08T23:42:41.553Z,62.37
2023-02-08T23:45:15.836Z,62.45
2023-02-08T23:47:48.757Z,62.54
2023-02-08T23:50:21.952Z,62.34
2023-02-08T23:52:56.562Z,62.56
2023-02-08T23:55:30.755Z,62.68
2023-02-08T23:58:03.926Z,62.69
